Hong Hing — 3FWZ4 — position and weather

sailwx.info

Track history (hours):
 
Tides and Currents Weather Stations Pressure Air Temp Water Temp Dewpoint Dewpoint Depression Visibility Wind Speed Wind Dir Waves Ship Positions

Hong Hing

Last reported at 2018-Apr-18 21:07 UTC. Time now 2018-May-20 21:40 UTC.
Position N 01°16' E 104°09'.
Warning: this ship's position is 32 days out of date.

Length 225 m; draft 7.3 m.

Type: Cargo ship. MMSI: 356791000.

Date/timePositionNaut miles runAvg speedWind from/ knotsBaromVisibWave heightAir tempDewpointWater temp
2018-Apr-18 21:07N 01°16' E 104°09'214.7
2018-Apr-18 20:57N 01°16' E 104°07'613.9
2018-Apr-18 20:31N 01°15' E 104°00'3 5.9
2018-Apr-18 19:58N 01°17' E 103°58'0 0.1
2018-Apr-18 19:10N 01°17' E 103°58'0 0.0
2018-Apr-18 18:55N 01°17' E 103°58'0 0.1
2018-Apr-18 18:28N 01°17' E 103°58'0 0.2
2018-Apr-18 17:58N 01°17' E 103°58'0 0.1
2018-Apr-18 17:16N 01°17' E 103°58'0 0.0
2018-Apr-18 15:34N 01°17' E 103°58'0 0.0
2018-Apr-18 15:25N 01°17' E 103°58'0 0.1
2018-Apr-18 14:46N 01°17' E 103°58'0 0.0
2018-Apr-18 12:07N 01°17' E 103°58'0 0.0
2018-Apr-18 11:52N 01°17' E 103°58'0 0.1
2018-Apr-18 11:22N 01°17' E 103°58'0 0.1
2018-Apr-18 10:49N 01°17' E 103°58'0 0.2
2018-Apr-18 10:25N 01°17' E 103°58'0 0.0
2018-Apr-18 09:58N 01°17' E 103°58'0 0.0
2018-Apr-18 09:16N 01°17' E 103°58'0 0.1
2018-Apr-18 08:43N 01°17' E 103°58'0 0.0
2018-Apr-18 08:10N 01°17' E 103°58'0 0.0
2018-Apr-18 07:58N 01°17' E 103°58'0 0.1
2018-Apr-18 07:04N 01°17' E 103°58'0 0.2
2018-Apr-18 06:55N 01°17' E 103°58'0 0.0
2018-Apr-18 06:22N 01°17' E 103°58'1 1.7
2018-Apr-18 06:00N 01°16' E 103°57'1 1.9
2018-Apr-18 05:30N 01°16' E 103°58'2 3.7
2018-Apr-18 05:00N 01°16' E 103°60'3 6.5
2018-Apr-18 04:29N 01°17' E 104°03'4 7.1
2018-Apr-18 03:58N 01°17' E 104°07'  
Track history (hours):
 
Tides and Currents Weather Stations Pressure Air Temp Water Temp Dewpoint Dewpoint Depression Visibility Wind Speed Wind Dir Waves Ship Positions

Hong Hing

Last reported at 2018-Apr-18 21:07 UTC. Time now 2018-May-20 21:40 UTC.
Position N 01°16' E 104°09'.
Warning: this ship's position is 32 days out of date.

Length 225 m; draft 7.3 m.

Type: Cargo ship. MMSI: 356791000.

Date/timePositionNaut miles runAvg speedWind from/ knotsBaromVisibWave heightAir tempDewpointWater temp
2018-Apr-18 21:07N 01°16' E 104°09'214.7
2018-Apr-18 20:57N 01°16' E 104°07'613.9
2018-Apr-18 20:31N 01°15' E 104°00'3 5.9
2018-Apr-18 19:58N 01°17' E 103°58'0 0.1
2018-Apr-18 19:10N 01°17' E 103°58'0 0.0
2018-Apr-18 18:55N 01°17' E 103°58'0 0.1
2018-Apr-18 18:28N 01°17' E 103°58'0 0.2
2018-Apr-18 17:58N 01°17' E 103°58'0 0.1
2018-Apr-18 17:16N 01°17' E 103°58'0 0.0
2018-Apr-18 15:34N 01°17' E 103°58'0 0.0
2018-Apr-18 15:25N 01°17' E 103°58'0 0.1
2018-Apr-18 14:46N 01°17' E 103°58'0 0.0
2018-Apr-18 12:07N 01°17' E 103°58'0 0.0
2018-Apr-18 11:52N 01°17' E 103°58'0 0.1
2018-Apr-18 11:22N 01°17' E 103°58'0 0.1
2018-Apr-18 10:49N 01°17' E 103°58'0 0.2
2018-Apr-18 10:25N 01°17' E 103°58'0 0.0
2018-Apr-18 09:58N 01°17' E 103°58'0 0.0
2018-Apr-18 09:16N 01°17' E 103°58'0 0.1
2018-Apr-18 08:43N 01°17' E 103°58'0 0.0
2018-Apr-18 08:10N 01°17' E 103°58'0 0.0
2018-Apr-18 07:58N 01°17' E 103°58'0 0.1
2018-Apr-18 07:04N 01°17' E 103°58'0 0.2
2018-Apr-18 06:55N 01°17' E 103°58'0 0.0
2018-Apr-18 06:22N 01°17' E 103°58'1 1.7
2018-Apr-18 06:00N 01°16' E 103°57'1 1.9
2018-Apr-18 05:30N 01°16' E 103°58'2 3.7
2018-Apr-18 05:00N 01°16' E 103°60'3 6.5
2018-Apr-18 04:29N 01°17' E 104°03'4 7.1
2018-Apr-18 03:58N 01°17' E 104°07'  

Dump ship's entire track history